createdAt,value
2018-09-17T00:00:25.576Z,17.10
2018-09-17T00:00:58.854Z,17.10
2018-09-17T00:01:32.060Z,17.10
2018-09-17T00:02:05.538Z,17.00
2018-09-17T00:02:38.747Z,17.00
2018-09-17T00:03:11.942Z,17.10
2018-09-17T00:03:45.447Z,17.00
2018-09-17T00:04:18.614Z,17.00
2018-09-17T00:04:51.791Z,17.00
2018-09-17T00:05:24.977Z,17.00
2018-09-17T00:05:58.163Z,17.00
2018-09-17T00:06:31.351Z,17.00
2018-09-17T00:07:04.535Z,17.00
2018-09-17T00:07:37.722Z,17.00
2018-09-17T00:08:10.955Z,17.00
2018-09-17T00:08:44.171Z,17.00
2018-09-17T00:09:17.347Z,16.90
2018-09-17T00:09:50.500Z,16.90
2018-09-17T00:10:23.683Z,16.90
2018-09-17T00:10:56.859Z,16.90
2018-09-17T00:11:30.030Z,16.90
2018-09-17T00:12:03.214Z,16.90
2018-09-17T00:12:36.385Z,17.00
2018-09-17T00:13:09.564Z,16.90
2018-09-17T00:13:42.750Z,16.90
2018-09-17T00:14:16.045Z,16.90
2018-09-17T00:14:49.228Z,16.90
2018-09-17T00:15:22.369Z,16.90
2018-09-17T00:15:55.530Z,16.90
2018-09-17T00:16:28.731Z,16.90
2018-09-17T00:17:01.911Z,16.90
2018-09-17T00:17:35.220Z,16.90
2018-09-17T00:18:08.543Z,16.90
2018-09-17T00:18:41.700Z,16.90
2018-09-17T00:19:14.883Z,16.90
2018-09-17T00:19:48.222Z,16.90
2018-09-17T00:20:21.366Z,16.90
2018-09-17T00:20:54.559Z,16.80
2018-09-17T00:21:27.713Z,16.80
2018-09-17T00:22:00.859Z,16.80
2018-09-17T00:22:34.098Z,16.80
2018-09-17T00:23:07.305Z,16.80
2018-09-17T00:23:40.557Z,16.80
2018-09-17T00:24:13.737Z,16.80
2018-09-17T00:24:46.906Z,16.80
2018-09-17T00:25:20.103Z,16.80
2018-09-17T00:25:53.251Z,16.80
2018-09-17T00:26:26.436Z,16.80
2018-09-17T00:26:59.603Z,16.80
2018-09-17T00:27:32.746Z,16.80
2018-09-17T00:28:06.008Z,16.70
2018-09-17T00:28:39.227Z,16.70
2018-09-17T00:29:12.378Z,16.70
2018-09-17T00:29:45.527Z,16.70
2018-09-17T00:30:18.691Z,16.70
2018-09-17T00:30:52.005Z,16.70
2018-09-17T00:31:25.146Z,16.70
2018-09-17T00:31:58.295Z,16.70
2018-09-17T00:32:31.467Z,16.70
2018-09-17T00:33:04.690Z,16.70
2018-09-17T00:33:37.852Z,16.70
2018-09-17T00:34:11.492Z,16.70
2018-09-17T00:34:44.721Z,16.70
2018-09-17T00:35:17.941Z,16.70
2018-09-17T00:35:51.707Z,16.70
2018-09-17T00:36:24.918Z,16.70
2018-09-17T00:36:58.089Z,16.60
2018-09-17T00:37:31.301Z,16.60
2018-09-17T00:38:04.459Z,16.60
2018-09-17T00:38:37.651Z,16.60
2018-09-17T00:39:13.016Z,16.60
2018-09-17T00:39:46.228Z,16.60
2018-09-17T00:40:19.439Z,16.60
2018-09-17T00:40:52.617Z,16.60
2018-09-17T00:41:25.759Z,16.60
2018-09-17T00:41:58.918Z,16.60
2018-09-17T00:42:32.100Z,16.60
2018-09-17T00:43:05.436Z,16.60
2018-09-17T00:43:38.670Z,16.60
2018-09-17T00:44:11.822Z,16.60
2018-09-17T00:44:44.937Z,16.60
2018-09-17T00:45:18.107Z,16.60
2018-09-17T00:45:51.281Z,16.60
2018-09-17T00:46:24.471Z,16.60
2018-09-17T00:46:57.822Z,16.50
2018-09-17T00:47:30.999Z,16.50
2018-09-17T00:48:04.145Z,16.60
2018-09-17T00:48:37.566Z,16.60
2018-09-17T00:49:10.760Z,16.60
2018-09-17T00:49:43.955Z,16.60
2018-09-17T00:50:17.129Z,16.60
2018-09-17T00:50:50.360Z,16.50
2018-09-17T00:51:23.516Z,16.50
2018-09-17T00:51:56.644Z,16.50
2018-09-17T00:52:29.798Z,16.50
2018-09-17T00:53:02.989Z,16.50
2018-09-17T00:53:36.150Z,16.50
2018-09-17T00:54:09.297Z,16.50
2018-09-17T00:54:42.478Z,16.50
2018-09-17T00:55:15.701Z,16.50
2018-09-17T00:55:48.856Z,16.50
2018-09-17T00:56:22.055Z,16.50
2018-09-17T00:56:55.267Z,16.40
2018-09-17T00:57:28.442Z,16.40
2018-09-17T00:58:01.647Z,16.40
2018-09-17T00:58:34.784Z,16.50
2018-09-17T00:59:08.011Z,16.40
2018-09-17T00:59:41.126Z,16.40
2018-09-17T01:00:14.331Z,16.40
2018-09-17T01:00:47.477Z,16.40
2018-09-17T01:01:20.685Z,16.40
2018-09-17T01:01:53.849Z,16.40
2018-09-17T01:02:26.990Z,16.40
2018-09-17T01:03:00.217Z,16.40
2018-09-17T01:03:33.378Z,16.40
2018-09-17T01:04:06.697Z,16.40
2018-09-17T01:04:39.890Z,16.40
2018-09-17T01:05:13.063Z,16.40
2018-09-17T01:05:46.251Z,16.40
2018-09-17T01:06:19.478Z,16.30
2018-09-17T01:06:52.625Z,16.30
2018-09-17T01:07:25.796Z,16.30
2018-09-17T01:07:58.973Z,16.30
2018-09-17T01:08:32.166Z,16.30
2018-09-17T01:09:06.332Z,16.30
2018-09-17T01:09:42.096Z,16.30
2018-09-17T01:10:15.276Z,16.30
2018-09-17T01:10:48.687Z,16.30
2018-09-17T01:11:21.851Z,16.30
2018-09-17T01:11:55.155Z,16.30
2018-09-17T01:12:28.362Z,16.30
2018-09-17T01:13:01.663Z,16.20
2018-09-17T01:13:35.434Z,16.30
2018-09-17T01:14:08.593Z,16.20
2018-09-17T01:14:41.816Z,16.30
2018-09-17T01:15:14.915Z,16.20
2018-09-17T01:15:48.075Z,16.20
2018-09-17T01:16:21.214Z,16.20
2018-09-17T01:16:54.435Z,16.20
2018-09-17T01:17:27.588Z,16.20
2018-09-17T01:18:00.759Z,16.20
2018-09-17T01:18:33.912Z,16.20
2018-09-17T01:19:07.126Z,16.20
2018-09-17T01:19:40.322Z,16.20
2018-09-17T01:20:13.493Z,16.20
2018-09-17T01:20:46.771Z,16.20
2018-09-17T01:21:20.443Z,16.20
2018-09-17T01:21:53.591Z,16.20
2018-09-17T01:22:26.843Z,16.20
2018-09-17T01:23:00.047Z,16.20
2018-09-17T01:23:33.258Z,16.20
2018-09-17T01:24:06.419Z,16.20
2018-09-17T01:24:39.638Z,16.10
2018-09-17T01:25:12.838Z,16.20
2018-09-17T01:25:46.007Z,16.20
2018-09-17T01:26:19.148Z,16.20
2018-09-17T01:26:52.331Z,16.10
2018-09-17T01:27:25.514Z,16.10
2018-09-17T01:27:58.651Z,16.10
2018-09-17T01:28:31.809Z,16.10
2018-09-17T01:29:05.373Z,16.10
2018-09-17T01:29:38.527Z,16.10
2018-09-17T01:30:11.771Z,16.10
2018-09-17T01:30:44.947Z,16.10
2018-09-17T01:31:18.295Z,16.20
2018-09-17T01:31:51.920Z,16.10
2018-09-17T01:32:25.104Z,16.10
2018-09-17T01:32:58.308Z,16.20
2018-09-17T01:33:31.626Z,16.20
2018-09-17T01:34:04.794Z,16.20
2018-09-17T01:34:37.971Z,16.20
2018-09-17T01:35:11.149Z,16.20
2018-09-17T01:35:44.326Z,16.20
2018-09-17T01:36:17.501Z,16.20
2018-09-17T01:36:50.646Z,16.20
2018-09-17T01:37:23.837Z,16.20
2018-09-17T01:37:57.012Z,16.20
2018-09-17T01:38:30.183Z,16.20
2018-09-17T01:39:03.478Z,16.20
2018-09-17T01:39:36.647Z,16.20
2018-09-17T01:40:09.930Z,16.20
2018-09-17T01:40:43.126Z,16.20
2018-09-17T01:41:16.304Z,16.20
2018-09-17T01:41:49.498Z,16.10
2018-09-17T01:42:22.678Z,16.10
2018-09-17T01:42:56.352Z,16.10
2018-09-17T01:43:29.539Z,16.10
2018-09-17T01:44:02.717Z,16.10
2018-09-17T01:44:35.900Z,16.10
2018-09-17T01:45:09.075Z,16.10
2018-09-17T01:45:42.259Z,16.10
2018-09-17T01:46:15.513Z,16.10
2018-09-17T01:46:48.674Z,16.10
2018-09-17T01:47:21.877Z,16.10
2018-09-17T01:47:55.014Z,16.10
2018-09-17T01:48:28.178Z,16.10
2018-09-17T01:49:02.057Z,16.10
2018-09-17T01:49:35.702Z,16.10
2018-09-17T01:50:08.865Z,16.10
2018-09-17T01:50:42.051Z,16.00
2018-09-17T01:51:15.707Z,16.00
2018-09-17T01:51:48.867Z,16.00
2018-09-17T01:52:22.005Z,16.00
2018-09-17T01:52:55.224Z,16.00
2018-09-17T01:53:28.406Z,16.00
2018-09-17T01:54:01.561Z,16.00
2018-09-17T01:54:34.817Z,15.90
2018-09-17T01:55:08.025Z,15.90
2018-09-17T01:55:41.247Z,15.90
2018-09-17T01:56:14.437Z,15.90
2018-09-17T01:56:47.649Z,15.90
2018-09-17T01:57:20.807Z,15.90
2018-09-17T01:57:53.971Z,15.90
2018-09-17T01:58:27.134Z,15.90
2018-09-17T01:59:00.330Z,15.90
2018-09-17T01:59:33.500Z,15.90
2018-09-17T02:00:07.257Z,15.90
2018-09-17T02:00:40.783Z,15.90
2018-09-17T02:01:13.960Z,15.90
2018-09-17T02:01:47.770Z,15.90
2018-09-17T02:02:20.974Z,15.90
2018-09-17T02:02:54.171Z,15.90
2018-09-17T02:03:27.362Z,15.90
2018-09-17T02:04:00.523Z,15.90
2018-09-17T02:04:33.700Z,15.90
2018-09-17T02:05:07.127Z,15.90
2018-09-17T02:05:40.407Z,15.80
2018-09-17T02:06:13.580Z,15.80
2018-09-17T02:06:46.929Z,15.80
2018-09-17T02:07:20.218Z,15.80
2018-09-17T02:07:53.433Z,15.80
2018-09-17T02:08:26.655Z,15.80
2018-09-17T02:08:59.815Z,15.80
2018-09-17T02:09:33.056Z,15.80
2018-09-17T02:10:06.645Z,15.80
2018-09-17T02:10:39.801Z,15.80
2018-09-17T02:11:12.974Z,15.80
2018-09-17T02:11:46.133Z,15.80
2018-09-17T02:12:19.330Z,15.80
2018-09-17T02:12:52.487Z,15.80
2018-09-17T02:13:26.068Z,15.80
2018-09-17T02:13:59.259Z,15.80
2018-09-17T02:14:32.420Z,15.80
2018-09-17T02:15:05.590Z,15.80
2018-09-17T02:15:38.769Z,15.80
2018-09-17T02:16:12.157Z,15.80
2018-09-17T02:16:45.337Z,15.80
2018-09-17T02:17:18.530Z,15.80
2018-09-17T02:17:51.745Z,15.70
2018-09-17T02:18:25.008Z,15.70
2018-09-17T02:18:58.207Z,15.70
2018-09-17T02:19:31.352Z,15.70
2018-09-17T02:20:04.542Z,15.70
2018-09-17T02:20:37.909Z,15.70
2018-09-17T02:21:11.559Z,15.70
2018-09-17T02:21:44.711Z,15.70
2018-09-17T02:22:17.966Z,15.70
2018-09-17T02:22:51.128Z,15.70
2018-09-17T02:23:24.372Z,15.70
2018-09-17T02:23:57.533Z,15.70
2018-09-17T02:24:30.851Z,15.70
2018-09-17T02:25:04.052Z,15.60
2018-09-17T02:25:37.242Z,15.60
2018-09-17T02:26:10.442Z,15.60
2018-09-17T02:26:43.623Z,15.60
2018-09-17T02:27:18.022Z,15.60
2018-09-17T02:27:51.207Z,15.60
2018-09-17T02:28:24.354Z,15.60
2018-09-17T02:28:57.837Z,15.60
2018-09-17T02:29:31.021Z,15.60
2018-09-17T02:30:04.268Z,15.60
2018-09-17T02:30:37.541Z,15.60
2018-09-17T02:31:10.713Z,15.60
2018-09-17T02:31:43.889Z,15.60
2018-09-17T02:32:17.648Z,15.60
2018-09-17T02:32:51.414Z,15.50
2018-09-17T02:33:25.438Z,15.50
2018-09-17T02:33:58.649Z,15.50
2018-09-17T02:34:32.837Z,15.50
2018-09-17T02:35:06.173Z,15.50
2018-09-17T02:35:39.703Z,15.50
2018-09-17T02:36:12.866Z,15.50
2018-09-17T02:36:46.616Z,15.50
2018-09-17T02:37:19.824Z,15.50
2018-09-17T02:37:53.027Z,15.50
2018-09-17T02:38:26.228Z,15.40
2018-09-17T02:39:00.578Z,15.40
2018-09-17T02:39:33.869Z,15.40
2018-09-17T02:40:11.383Z,15.40
2018-09-17T02:40:44.506Z,15.40
2018-09-17T02:41:17.669Z,15.40
2018-09-17T02:41:50.813Z,15.40
2018-09-17T02:42:23.997Z,15.40
2018-09-17T02:42:57.189Z,15.40
2018-09-17T02:43:31.374Z,15.40
2018-09-17T02:44:04.562Z,15.40
2018-09-17T02:44:38.490Z,15.40
2018-09-17T02:45:11.759Z,15.30
2018-09-17T02:45:44.930Z,15.30
2018-09-17T02:46:18.211Z,15.30
2018-09-17T02:46:51.395Z,15.30
2018-09-17T02:47:24.647Z,15.30
2018-09-17T02:47:57.759Z,15.30
2018-09-17T02:48:30.922Z,15.30
2018-09-17T02:49:04.257Z,15.30
2018-09-17T02:49:37.438Z,15.30
2018-09-17T02:50:10.644Z,15.30
2018-09-17T02:50:43.977Z,15.30
2018-09-17T02:51:17.095Z,15.30
2018-09-17T02:51:50.442Z,15.30
2018-09-17T02:52:23.629Z,15.30
2018-09-17T02:52:56.807Z,15.20
2018-09-17T02:53:30.076Z,15.20
2018-09-17T02:54:03.190Z,15.20
2018-09-17T02:54:36.530Z,15.20
2018-09-17T02:55:10.575Z,15.20
2018-09-17T02:55:43.764Z,15.20
2018-09-17T02:56:16.940Z,15.20
2018-09-17T02:56:50.282Z,15.20
2018-09-17T02:57:23.484Z,15.20
2018-09-17T02:57:56.661Z,15.10
2018-09-17T02:58:29.870Z,15.10
2018-09-17T02:59:03.067Z,15.10
2018-09-17T02:59:36.902Z,15.10
2018-09-17T03:00:10.705Z,15.10
2018-09-17T03:00:43.880Z,15.10
2018-09-17T03:01:17.093Z,15.10
2018-09-17T03:01:50.289Z,15.10
2018-09-17T03:02:23.528Z,15.10
2018-09-17T03:02:56.701Z,15.10
2018-09-17T03:03:29.830Z,15.00
2018-09-17T03:04:02.999Z,15.00
2018-09-17T03:04:36.156Z,15.00
2018-09-17T03:05:09.591Z,15.00
2018-09-17T03:05:42.762Z,15.00
2018-09-17T03:06:16.892Z,15.00
2018-09-17T03:06:50.230Z,15.00
2018-09-17T03:07:24.606Z,15.00
2018-09-17T03:07:57.798Z,15.00
2018-09-17T03:08:30.938Z,15.00
2018-09-17T03:09:06.170Z,15.00
2018-09-17T03:09:39.326Z,15.00
2018-09-17T03:10:12.512Z,15.00
2018-09-17T03:10:46.330Z,15.00
2018-09-17T03:11:19.485Z,15.00
2018-09-17T03:11:52.634Z,15.00
2018-09-17T03:12:25.831Z,15.00
2018-09-17T03:12:58.991Z,15.00
2018-09-17T03:13:32.310Z,15.00
2018-09-17T03:14:05.635Z,14.90
2018-09-17T03:14:38.833Z,15.00
2018-09-17T03:15:23.540Z,15.00
2018-09-17T03:15:56.714Z,14.90
2018-09-17T03:16:29.992Z,14.90
2018-09-17T03:17:09.234Z,14.90
2018-09-17T03:17:42.418Z,14.90
2018-09-17T03:18:16.182Z,14.90
2018-09-17T03:18:58.110Z,14.90
2018-09-17T03:19:31.287Z,14.90
2018-09-17T03:20:04.470Z,14.90
2018-09-17T03:20:37.699Z,14.90
2018-09-17T03:21:17.666Z,14.90
2018-09-17T03:21:50.847Z,14.90
2018-09-17T03:22:24.040Z,14.90
2018-09-17T03:22:57.206Z,14.90
2018-09-17T03:23:30.636Z,14.90
2018-09-17T03:24:03.794Z,14.90
2018-09-17T03:24:37.231Z,14.90
2018-09-17T03:25:10.375Z,14.90
2018-09-17T03:25:43.609Z,14.90
2018-09-17T03:26:17.095Z,14.90
2018-09-17T03:26:50.288Z,14.90
2018-09-17T03:27:23.406Z,14.80
2018-09-17T03:27:56.534Z,14.80
2018-09-17T03:28:29.720Z,14.90
2018-09-17T03:29:03.405Z,14.80
2018-09-17T03:29:36.760Z,14.80
2018-09-17T03:30:10.021Z,14.90
2018-09-17T03:30:43.811Z,14.90
2018-09-17T03:31:17.291Z,14.90
2018-09-17T03:31:50.449Z,14.90
2018-09-17T03:32:23.621Z,14.80
2018-09-17T03:32:57.134Z,14.80
2018-09-17T03:33:30.491Z,14.80
2018-09-17T03:34:03.659Z,14.80
2018-09-17T03:34:36.840Z,14.80
2018-09-17T03:35:10.026Z,14.80
2018-09-17T03:35:43.178Z,14.80
2018-09-17T03:36:16.574Z,14.80
2018-09-17T03:36:49.734Z,14.80
2018-09-17T03:37:26.193Z,14.80
2018-09-17T03:38:14.066Z,14.80
2018-09-17T03:38:48.193Z,14.80
2018-09-17T03:39:21.387Z,14.80
2018-09-17T03:39:54.766Z,14.80
2018-09-17T03:40:27.911Z,14.80
2018-09-17T03:41:02.674Z,14.80
2018-09-17T03:41:42.324Z,14.80
2018-09-17T03:42:15.494Z,14.70
2018-09-17T03:42:48.665Z,14.70
2018-09-17T03:43:21.878Z,14.80
2018-09-17T03:43:55.079Z,14.70
2018-09-17T03:44:28.292Z,14.70
2018-09-17T03:45:01.458Z,14.70
2018-09-17T03:45:34.691Z,14.70
2018-09-17T03:46:08.028Z,14.70
2018-09-17T03:46:41.323Z,14.70
2018-09-17T03:47:14.434Z,14.70
2018-09-17T03:47:47.640Z,14.70
2018-09-17T03:48:20.894Z,14.70
2018-09-17T03:48:54.072Z,14.70
2018-09-17T03:49:27.312Z,14.70
2018-09-17T03:50:00.510Z,14.70
2018-09-17T03:50:33.672Z,14.70
2018-09-17T03:51:07.599Z,14.70
2018-09-17T03:51:40.803Z,14.70
2018-09-17T03:52:13.992Z,14.70
2018-09-17T03:52:47.119Z,14.70
2018-09-17T03:53:20.333Z,14.70
2018-09-17T03:53:53.488Z,14.70
2018-09-17T03:54:26.651Z,14.70
2018-09-17T03:54:59.828Z,14.70
2018-09-17T03:55:33.089Z,14.70
2018-09-17T03:56:06.414Z,14.70
2018-09-17T03:56:39.605Z,14.70
2018-09-17T03:57:13.286Z,14.70
2018-09-17T03:57:46.845Z,14.70
2018-09-17T03:58:20.210Z,14.70
2018-09-17T03:58:53.524Z,14.70
2018-09-17T03:59:26.662Z,14.70
2018-09-17T03:59:59.895Z,14.70
2018-09-17T04:00:33.093Z,14.70
2018-09-17T04:01:06.559Z,14.70
2018-09-17T04:01:39.715Z,14.70
2018-09-17T04:02:13.116Z,14.70
2018-09-17T04:02:46.379Z,14.70
2018-09-17T04:03:19.820Z,14.70
2018-09-17T04:03:53.247Z,14.70
2018-09-17T04:04:26.427Z,14.70
2018-09-17T04:04:59.779Z,14.70
2018-09-17T04:05:33.101Z,14.70
2018-09-17T04:06:06.238Z,14.70
2018-09-17T04:06:39.391Z,14.70
2018-09-17T04:07:12.624Z,14.70
2018-09-17T04:07:45.788Z,14.70
2018-09-17T04:08:19.178Z,14.70
2018-09-17T04:08:52.386Z,14.70
2018-09-17T04:09:25.591Z,14.70
2018-09-17T04:09:58.771Z,14.70
2018-09-17T04:10:32.088Z,14.70
2018-09-17T04:11:05.389Z,14.70
2018-09-17T04:11:38.569Z,14.70
2018-09-17T04:12:12.055Z,14.80
2018-09-17T04:12:45.221Z,14.80
2018-09-17T04:13:18.421Z,14.70
2018-09-17T04:13:51.595Z,14.70
2018-09-17T04:14:24.741Z,14.70
2018-09-17T04:14:57.876Z,14.70
2018-09-17T04:15:31.073Z,14.60
2018-09-17T04:16:04.258Z,14.70
2018-09-17T04:16:38.005Z,14.60
2018-09-17T04:17:11.367Z,14.60
2018-09-17T04:17:44.506Z,14.60
2018-09-17T04:18:17.699Z,14.60
2018-09-17T04:18:50.900Z,14.60
2018-09-17T04:19:24.231Z,14.60
2018-09-17T04:19:57.554Z,14.60
2018-09-17T04:20:30.804Z,14.60
2018-09-17T04:21:04.054Z,14.60
2018-09-17T04:21:37.386Z,14.50
2018-09-17T04:22:10.909Z,14.50
2018-09-17T04:22:44.075Z,14.50
2018-09-17T04:23:21.894Z,14.50
2018-09-17T04:23:55.154Z,14.60
2018-09-17T04:24:28.575Z,14.60
2018-09-17T04:25:01.752Z,14.60
2018-09-17T04:25:34.912Z,14.50
2018-09-17T04:26:11.050Z,14.50
2018-09-17T04:26:44.508Z,14.50
2018-09-17T04:27:17.680Z,14.50
2018-09-17T04:27:51.179Z,14.50
2018-09-17T04:28:24.562Z,14.50
2018-09-17T04:28:57.989Z,14.50
2018-09-17T04:29:31.134Z,14.50
2018-09-17T04:30:04.597Z,14.50
2018-09-17T04:30:37.767Z,14.50
2018-09-17T04:31:10.960Z,14.50
2018-09-17T04:31:44.302Z,14.50
2018-09-17T04:32:17.624Z,14.50
2018-09-17T04:32:51.411Z,14.50
2018-09-17T04:33:25.035Z,14.50
2018-09-17T04:33:58.473Z,14.50
2018-09-17T04:34:31.648Z,14.50
2018-09-17T04:35:06.277Z,14.50
2018-09-17T04:35:39.407Z,14.50
2018-09-17T04:36:13.249Z,14.50
2018-09-17T04:36:46.520Z,14.50
2018-09-17T04:37:19.692Z,14.50
2018-09-17T04:37:56.716Z,14.50
2018-09-17T04:38:30.207Z,14.50
2018-09-17T04:39:03.786Z,14.50
2018-09-17T04:39:38.049Z,14.50
2018-09-17T04:40:11.337Z,14.50
2018-09-17T04:40:44.804Z,14.50
2018-09-17T04:41:18.509Z,14.50
2018-09-17T04:41:52.386Z,14.50
2018-09-17T04:42:25.772Z,14.50
2018-09-17T04:42:59.274Z,14.50
2018-09-17T04:43:32.775Z,14.50
2018-09-17T04:44:06.478Z,14.50
2018-09-17T04:44:39.935Z,14.50
2018-09-17T04:45:13.608Z,14.50
2018-09-17T04:45:47.162Z,14.50
2018-09-17T04:46:20.919Z,14.50
2018-09-17T04:46:54.455Z,14.50
2018-09-17T04:47:27.953Z,14.50
2018-09-17T04:48:01.406Z,14.50
2018-09-17T04:48:34.803Z,14.50
2018-09-17T04:49:08.579Z,14.50
2018-09-17T04:49:42.527Z,14.50
2018-09-17T04:50:15.700Z,14.50
2018-09-17T04:50:50.001Z,14.50
2018-09-17T04:51:23.386Z,14.50
2018-09-17T04:51:57.074Z,14.50
2018-09-17T04:52:31.073Z,14.50
2018-09-17T04:53:04.472Z,14.50
2018-09-17T04:53:37.876Z,14.50
2018-09-17T04:54:11.067Z,14.50
2018-09-17T04:54:44.255Z,14.50
2018-09-17T04:55:17.419Z,14.50
2018-09-17T04:55:50.581Z,14.50
2018-09-17T04:56:23.842Z,14.50
2018-09-17T04:56:57.275Z,14.50
2018-09-17T04:57:31.130Z,14.50
2018-09-17T04:58:04.903Z,14.50
2018-09-17T04:58:38.386Z,14.50
2018-09-17T04:59:11.601Z,14.50
2018-09-17T04:59:44.859Z,14.50
2018-09-17T05:00:18.147Z,14.50
2018-09-17T05:00:51.487Z,14.50
2018-09-17T05:01:24.700Z,14.50
2018-09-17T05:01:58.499Z,14.50
2018-09-17T05:02:31.754Z,14.50
2018-09-17T05:03:04.998Z,14.50
2018-09-17T05:03:38.468Z,14.50
2018-09-17T05:04:12.072Z,14.50
2018-09-17T05:04:45.656Z,14.50
2018-09-17T05:05:19.158Z,14.50
2018-09-17T05:05:52.569Z,14.50
2018-09-17T05:06:25.808Z,14.50
2018-09-17T05:06:59.519Z,14.50
2018-09-17T05:07:32.830Z,14.50
2018-09-17T05:08:06.390Z,14.50
2018-09-17T05:08:39.904Z,14.50
2018-09-17T05:09:13.230Z,14.40
2018-09-17T05:09:47.324Z,14.50
2018-09-17T05:10:21.143Z,14.50
2018-09-17T05:10:54.403Z,14.50
2018-09-17T05:11:27.861Z,14.50
2018-09-17T05:12:01.235Z,14.40
2018-09-17T05:12:34.552Z,14.40
2018-09-17T05:13:08.057Z,14.40
2018-09-17T05:13:41.847Z,14.50
2018-09-17T05:14:15.057Z,14.50
2018-09-17T05:14:48.327Z,14.50
2018-09-17T05:15:21.693Z,14.50
2018-09-17T05:15:55.012Z,14.50
2018-09-17T05:16:28.202Z,14.50
2018-09-17T05:17:01.892Z,14.50
2018-09-17T05:17:35.962Z,14.40
2018-09-17T05:18:09.138Z,14.50
2018-09-17T05:18:42.565Z,14.40
2018-09-17T05:19:15.885Z,14.40
2018-09-17T05:19:49.272Z,14.50
2018-09-17T05:20:22.639Z,14.40
2018-09-17T05:20:55.864Z,14.50
2018-09-17T05:21:29.147Z,14.50
2018-09-17T05:22:02.661Z,14.50
2018-09-17T05:22:36.759Z,14.50
2018-09-17T05:23:09.993Z,14.50
2018-09-17T05:23:43.296Z,14.50
2018-09-17T05:24:16.617Z,14.50
2018-09-17T05:24:50.095Z,14.50
2018-09-17T05:25:24.009Z,14.50
2018-09-17T05:25:58.162Z,14.60
2018-09-17T05:26:31.907Z,14.60
2018-09-17T05:27:05.214Z,14.60
2018-09-17T05:27:38.494Z,14.60
2018-09-17T05:28:12.772Z,14.60
2018-09-17T05:28:46.223Z,14.60
2018-09-17T05:29:20.011Z,14.60
2018-09-17T05:29:53.234Z,14.60
2018-09-17T05:30:27.018Z,14.60
2018-09-17T05:31:00.392Z,14.70
2018-09-17T05:31:33.697Z,14.70
2018-09-17T05:32:08.682Z,14.70
2018-09-17T05:32:42.589Z,14.70
2018-09-17T05:33:15.774Z,14.80
2018-09-17T05:33:49.038Z,14.80
2018-09-17T05:34:22.466Z,14.80
2018-09-17T05:34:55.933Z,14.80
2018-09-17T05:35:29.229Z,14.80
2018-09-17T05:36:02.590Z,14.90
2018-09-17T05:36:36.234Z,14.90
2018-09-17T05:37:10.245Z,14.90
2018-09-17T05:37:43.975Z,14.90
2018-09-17T05:38:17.456Z,15.00
2018-09-17T05:38:51.304Z,15.00
2018-09-17T05:39:24.758Z,15.00
2018-09-17T05:39:58.170Z,15.00
2018-09-17T05:40:31.340Z,15.10
2018-09-17T05:41:04.786Z,15.10
2018-09-17T05:41:38.468Z,15.10
2018-09-17T05:42:11.929Z,15.10
2018-09-17T05:42:45.124Z,15.20
2018-09-17T05:43:18.784Z,15.20
2018-09-17T05:43:52.222Z,15.20
2018-09-17T05:44:26.459Z,15.20
2018-09-17T05:45:00.710Z,15.30
2018-09-17T05:45:34.529Z,15.30
2018-09-17T05:46:07.879Z,15.30
2018-09-17T05:46:41.107Z,15.30
2018-09-17T05:47:14.320Z,15.40
2018-09-17T05:47:47.947Z,15.40
2018-09-17T05:48:21.344Z,15.40
2018-09-17T05:48:54.562Z,15.40
2018-09-17T05:49:27.937Z,15.50
2018-09-17T05:50:01.209Z,15.50
2018-09-17T05:50:35.007Z,15.60
2018-09-17T05:51:08.199Z,15.60
2018-09-17T05:51:41.567Z,15.60
2018-09-17T05:52:14.878Z,15.60
2018-09-17T05:52:48.143Z,15.70
2018-09-17T05:53:21.339Z,15.70
2018-09-17T05:53:54.709Z,15.70
2018-09-17T05:54:28.094Z,15.70
2018-09-17T05:55:01.326Z,15.70
2018-09-17T05:55:34.588Z,15.80
2018-09-17T05:56:07.790Z,15.80
2018-09-17T05:56:41.083Z,15.80
2018-09-17T05:57:14.302Z,15.80
2018-09-17T05:57:48.118Z,15.90
2018-09-17T05:58:21.884Z,15.90
2018-09-17T05:58:55.844Z,15.90
2018-09-17T05:59:29.076Z,15.90
2018-09-17T06:00:04.105Z,15.90
2018-09-17T06:00:37.379Z,16.00
2018-09-17T06:01:10.740Z,16.00
2018-09-17T06:01:44.131Z,16.00
2018-09-17T06:02:17.479Z,16.00
2018-09-17T06:02:50.727Z,16.00
2018-09-17T06:03:23.982Z,16.00
2018-09-17T06:03:57.899Z,16.10
2018-09-17T06:04:31.311Z,16.10
2018-09-17T06:05:04.729Z,16.10
2018-09-17T06:05:38.070Z,16.20
2018-09-17T06:06:11.562Z,16.20
2018-09-17T06:06:44.820Z,16.20
2018-09-17T06:07:18.050Z,16.20
2018-09-17T06:07:51.562Z,16.20
2018-09-17T06:08:24.816Z,16.30
2018-09-17T06:08:58.015Z,16.30
2018-09-17T06:09:31.239Z,16.30
2018-09-17T06:10:08.922Z,16.30
2018-09-17T06:10:42.143Z,16.40
2018-09-17T06:11:15.487Z,16.30
2018-09-17T06:11:48.964Z,16.40
2018-09-17T06:12:22.883Z,16.40
2018-09-17T06:12:56.477Z,16.40
2018-09-17T06:13:40.678Z,16.40
2018-09-17T06:14:13.870Z,16.50
2018-09-17T06:14:47.261Z,16.50
2018-09-17T06:15:21.485Z,16.50
2018-09-17T06:16:14.594Z,16.60
2018-09-17T06:16:48.469Z,16.60
2018-09-17T06:17:21.763Z,16.60
2018-09-17T06:17:54.987Z,16.70
2018-09-17T06:18:28.236Z,16.70
2018-09-17T06:19:01.437Z,16.70
2018-09-17T06:19:34.789Z,16.80
2018-09-17T06:20:08.493Z,16.80
2018-09-17T06:20:41.767Z,16.80
2018-09-17T06:21:15.263Z,16.80
2018-09-17T06:21:48.532Z,16.90
2018-09-17T06:22:21.723Z,16.90
2018-09-17T06:22:55.035Z,17.00
2018-09-17T06:23:29.130Z,17.00
2018-09-17T06:24:02.652Z,17.00
2018-09-17T06:24:35.843Z,17.10
2018-09-17T06:25:09.079Z,17.10
2018-09-17T06:25:42.350Z,17.10
2018-09-17T06:26:15.613Z,17.20
2018-09-17T06:26:48.875Z,17.20
2018-09-17T06:27:22.128Z,17.20
2018-09-17T06:27:55.697Z,17.30
2018-09-17T06:28:29.448Z,17.30
2018-09-17T06:29:02.803Z,17.30
2018-09-17T06:29:35.973Z,17.30
2018-09-17T06:30:09.685Z,17.40
2018-09-17T06:30:42.995Z,17.50
2018-09-17T06:31:16.634Z,17.50
2018-09-17T06:31:49.977Z,17.50
2018-09-17T06:32:23.242Z,17.60
2018-09-17T06:32:56.621Z,17.60
2018-09-17T06:33:30.016Z,17.60
2018-09-17T06:34:03.247Z,17.70
2018-09-17T06:34:36.469Z,17.70
2018-09-17T06:35:09.665Z,17.80
2018-09-17T06:35:43.025Z,17.80
2018-09-17T06:36:16.464Z,17.80
2018-09-17T06:36:49.678Z,17.90
2018-09-17T06:37:22.947Z,17.90
2018-09-17T06:37:56.262Z,18.00
2018-09-17T06:38:30.141Z,18.00
2018-09-17T06:39:03.982Z,18.00
2018-09-17T06:39:37.259Z,18.00
2018-09-17T06:40:10.442Z,18.00
2018-09-17T06:40:43.653Z,18.10
2018-09-17T06:41:17.324Z,18.10
2018-09-17T06:41:50.997Z,18.10
2018-09-17T06:42:24.358Z,18.10
2018-09-17T06:42:57.544Z,18.20
2018-09-17T06:43:30.836Z,18.20
2018-09-17T06:44:04.351Z,18.20
2018-09-17T06:44:37.638Z,18.30
2018-09-17T06:45:11.246Z,18.30
2018-09-17T06:45:44.499Z,18.20
2018-09-17T06:46:17.878Z,18.30
2018-09-17T06:46:51.142Z,18.30
2018-09-17T06:47:24.638Z,18.40
2018-09-17T06:47:57.875Z,18.40
2018-09-17T06:48:31.254Z,18.40
2018-09-17T06:49:04.491Z,18.40
2018-09-17T06:49:37.734Z,18.40
2018-09-17T06:50:10.976Z,18.40
2018-09-17T06:50:44.777Z,18.40
2018-09-17T06:51:18.079Z,18.40
2018-09-17T06:51:51.537Z,18.50
2018-09-17T06:52:25.342Z,18.50
2018-09-17T06:52:58.656Z,18.50
2018-09-17T06:53:31.986Z,18.50
2018-09-17T06:54:05.219Z,18.50
2018-09-17T06:54:38.597Z,18.50
2018-09-17T06:55:12.173Z,18.50
2018-09-17T06:55:45.475Z,18.60
2018-09-17T06:56:18.775Z,18.60
2018-09-17T06:56:52.202Z,18.70
2018-09-17T06:57:25.402Z,18.70
2018-09-17T06:57:58.681Z,18.70
2018-09-17T06:58:32.202Z,18.80
2018-09-17T06:59:05.504Z,18.80
2018-09-17T06:59:38.872Z,18.80
2018-09-17T07:00:12.053Z,18.80
2018-09-17T07:00:45.538Z,18.80
2018-09-17T07:01:18.997Z,18.90
2018-09-17T07:01:52.205Z,18.90
2018-09-17T07:02:25.362Z,19.00
2018-09-17T07:02:58.679Z,19.00
2018-09-17T07:03:32.014Z,19.00
2018-09-17T07:04:05.578Z,19.10
2018-09-17T07:04:38.755Z,19.10
2018-09-17T07:05:12.134Z,19.10
2018-09-17T07:05:45.383Z,19.20
2018-09-17T07:06:18.709Z,19.20
2018-09-17T07:06:52.415Z,19.20
2018-09-17T07:07:25.608Z,19.30
2018-09-17T07:07:58.826Z,19.30
2018-09-17T07:08:31.988Z,19.30
2018-09-17T07:09:08.847Z,19.40
2018-09-17T07:09:42.768Z,19.40
2018-09-17T07:10:15.933Z,19.40
2018-09-17T07:10:49.309Z,19.40
2018-09-17T07:11:22.704Z,19.50